Time;durP1;ratioP1;P1;durP2;ratioP2;P2;SDS_P1;SDS_P2;PMS_P1;PMS_P2;Temp;Humidity;BMP_temperature;BMP_pressure;BME280_temperature;BME280_humidity;BME280_pressure;Samples;Min_cycle;Max_cycle;Signal;HPM_P1;HPM_P2
2021/09/18 00:02:11;;;;;;;10.10;9.20;;;13.90;99.90;;;;;;5001574;28;20169;-84
2021/09/18 00:04:36;;;;;;;8.90;8.00;;;13.70;99.90;;;;;;4984314;28;20221;-83
2021/09/18 00:07:03;;;;;;;9.20;8.27;;;13.50;99.90;;;;;;4999963;28;20220;-83
2021/09/18 00:09:28;;;;;;;11.30;9.23;;;13.60;99.90;;;;;;5000045;28;20205;-83
2021/09/18 00:11:54;;;;;;;11.87;9.70;;;13.80;99.90;;;;;;4999830;28;20409;-83
2021/09/18 00:14:23;;;;;;;9.87;8.90;;;13.70;99.90;;;;;;5000374;28;20205;-83
2021/09/18 00:16:50;;;;;;;8.83;7.97;;;13.70;99.90;;;;;;4983554;28;20414;-84
2021/09/18 00:19:16;;;;;;;10.10;8.83;;;13.60;99.90;;;;;;4999708;28;20654;-84
2021/09/18 00:21:42;;;;;;;8.80;8.03;;;13.80;99.90;;;;;;4999907;28;20417;-84
2021/09/18 00:24:08;;;;;;;10.87;9.40;;;13.80;99.90;;;;;;4983718;28;21075;-84
2021/09/18 00:26:34;;;;;;;9.00;7.67;;;13.90;99.90;;;;;;4999180;28;20220;-84
2021/09/18 00:29:02;;;;;;;9.33;7.37;;;13.80;99.90;;;;;;4967058;28;20288;-84
2021/09/18 00:31:28;;;;;;;9.67;8.80;;;13.50;99.90;;;;;;4983937;28;20420;-83
2021/09/18 00:33:54;;;;;;;9.73;8.83;;;13.50;99.90;;;;;;4998689;28;20953;-84
2021/09/18 00:36:20;;;;;;;10.07;8.57;;;13.40;99.90;;;;;;4998950;28;20408;-83
2021/09/18 00:38:49;;;;;;;8.90;8.00;;;13.40;99.90;;;;;;5001724;28;20398;-83
2021/09/18 00:41:15;;;;;;;16.07;8.77;;;13.80;99.90;;;;;;5000729;28;20398;-83
2021/09/18 00:43:41;;;;;;;8.60;7.77;;;13.90;99.90;;;;;;5000903;28;20876;-84
2021/09/18 00:46:07;;;;;;;8.40;7.67;;;13.70;99.90;;;;;;4994275;28;20445;-82
2021/09/18 00:48:33;;;;;;;8.80;7.93;;;13.70;99.90;;;;;;5015894;28;20189;-82
2021/09/18 00:50:59;;;;;;;9.30;8.37;;;13.80;99.90;;;;;;5016668;28;20385;-80
2021/09/18 00:53:26;;;;;;;11.60;9.40;;;13.60;99.90;;;;;;5014872;28;20186;-83
2021/09/18 00:55:52;;;;;;;10.10;7.57;;;13.60;99.90;;;;;;5005372;28;20169;-84
2021/09/18 00:58:17;;;;;;;10.20;8.40;;;13.70;99.90;;;;;;4985197;28;20472;-84
2021/09/18 01:00:43;;;;;;;8.97;8.07;;;13.60;99.90;;;;;;5001099;28;20162;-84
2021/09/18 01:03:09;;;;;;;10.53;9.53;;;13.60;99.90;;;;;;5003464;28;20287;-84
2021/09/18 01:05:36;;;;;;;13.83;8.40;;;13.70;99.90;;;;;;5002225;28;20181;-84
2021/09/18 01:08:03;;;;;;;14.30;10.43;;;13.70;99.90;;;;;;5002405;28;20162;-84
2021/09/18 01:10:29;;;;;;;9.57;8.57;;;13.90;99.90;;;;;;5002218;28;20404;-84
2021/09/18 01:13:02;;;;;;;14.40;8.57;;;13.90;99.90;;;;;;5001826;28;20754;-84
2021/09/18 01:15:29;;;;;;;12.40;9.30;;;14.00;99.90;;;;;;5002399;28;20398;-84
2021/09/18 01:17:58;;;;;;;9.73;8.70;;;14.10;99.90;;;;;;5003793;28;20452;-84
2021/09/18 01:20:26;;;;;;;10.37;7.27;;;14.10;99.90;;;;;;5007155;28;20401;-84
2021/09/18 01:22:55;;;;;;;9.60;8.37;;;14.20;99.90;;;;;;5002591;28;20451;-85
2021/09/18 01:25:20;;;;;;;10.37;9.47;;;14.20;99.90;;;;;;5001757;28;20459;-83
2021/09/18 01:27:47;;;;;;;10.97;8.37;;;14.20;99.90;;;;;;5002351;28;20495;-83
2021/09/18 01:30:24;;;;;;;9.43;8.50;;;14.10;99.90;;;;;;5003030;28;20163;-84
2021/09/18 01:32:51;;;;;;;12.90;10.30;;;13.80;99.90;;;;;;5002855;28;20868;-84
2021/09/18 01:35:17;;;;;;;10.40;7.93;;;13.80;99.90;;;;;;5002375;28;20460;-85
2021/09/18 01:37:46;;;;;;;8.50;7.60;;;13.70;99.90;;;;;;5001323;28;20402;-85
2021/09/18 01:40:18;;;;;;;9.83;8.10;;;13.70;99.90;;;;;;5002284;28;20166;-84
2021/09/18 01:42:46;;;;;;;10.60;8.23;;;13.70;99.90;;;;;;5002567;28;20412;-84
2021/09/18 01:45:12;;;;;;;9.93;7.70;;;13.70;99.90;;;;;;5002695;28;20494;-85
2021/09/18 01:47:43;;;;;;;9.40;8.40;;;13.60;99.90;;;;;;5011132;28;20457;-84
2021/09/18 01:50:30;;;;;;;22.70;8.23;;;13.60;99.90;;;;;;5016584;28;20472;-82
2021/09/18 01:53:00;;;;;;;11.17;8.17;;;13.60;99.90;;;;;;5017097;28;20397;-83
2021/09/18 01:55:27;;;;;;;9.57;8.57;;;13.70;99.90;;;;;;5017163;28;20464;-83
2021/09/18 01:57:55;;;;;;;8.87;7.87;;;13.60;99.90;;;;;;5017558;28;20452;-83
2021/09/18 02:00:21;;;;;;;9.23;8.17;;;13.50;99.90;;;;;;5016691;28;20425;-83
2021/09/18 02:02:51;;;;;;;11.13;9.23;;;13.60;99.90;;;;;;5018088;28;20401;-84
2021/09/18 02:05:21;;;;;;;12.93;9.47;;;13.70;99.90;;;;;;5017502;28;20398;-84
2021/09/18 02:07:47;;;;;;;10.30;8.17;;;13.90;99.90;;;;;;5017200;28;20485;-83
2021/09/18 02:10:16;;;;;;;9.70;7.50;;;13.90;99.90;;;;;;5017369;28;20389;-82
2021/09/18 02:12:42;;;;;;;10.37;8.13;;;13.90;99.90;;;;;;5019179;28;20456;-83
2021/09/18 02:15:09;;;;;;;9.50;8.60;;;13.90;99.90;;;;;;5020398;28;20397;-83
2021/09/18 02:17:36;;;;;;;8.70;7.50;;;13.60;99.90;;;;;;5021366;28;20428;-84
2021/09/18 02:20:05;;;;;;;9.40;8.60;;;13.60;99.90;;;;;;5019851;28;20410;-83
2021/09/18 02:22:30;;;;;;;9.80;8.47;;;13.60;99.90;;;;;;5005993;28;20403;-84
2021/09/18 02:24:56;;;;;;;13.07;8.00;;;13.60;99.90;;;;;;5005328;28;20488;-84
2021/09/18 02:27:22;;;;;;;9.63;8.67;;;13.60;99.90;;;;;;5003766;28;20589;-84
2021/09/18 02:29:48;;;;;;;11.10;7.97;;;13.60;99.90;;;;;;5004963;28;20234;-84
2021/09/18 02:32:13;;;;;;;11.20;7.63;;;13.80;99.90;;;;;;5003961;28;20158;-84
2021/09/18 02:34:39;;;;;;;9.63;8.43;;;13.90;99.90;;;;;;5004767;28;20170;-84
2021/09/18 02:37:05;;;;;;;7.63;6.83;;;14.00;99.90;;;;;;5010914;28;20178;-83
2021/09/18 02:39:34;;;;;;;10.10;7.47;;;14.10;99.90;;;;;;5014148;28;20412;-83
2021/09/18 02:42:00;;;;;;;8.93;8.00;;;14.10;99.90;;;;;;5004114;28;20401;-83
2021/09/18 02:44:25;;;;;;;10.17;8.57;;;14.20;99.90;;;;;;5004127;28;20194;-84
2021/09/18 02:46:51;;;;;;;8.73;7.37;;;14.20;99.90;;;;;;5004175;28;20198;-84
2021/09/18 02:49:17;;;;;;;9.77;8.00;;;14.30;99.90;;;;;;5003403;28;20165;-84
2021/09/18 02:51:43;;;;;;;10.17;9.13;;;14.40;99.90;;;;;;5004301;28;20158;-84
2021/09/18 02:54:09;;;;;;;7.53;6.73;;;14.40;99.90;;;;;;5003888;28;20714;-84
2021/09/18 02:56:34;;;;;;;9.80;8.27;;;14.40;99.90;;;;;;5001478;28;20229;-83
2021/09/18 02:59:00;;;;;;;10.23;7.93;;;14.40;99.90;;;;;;5002945;28;20526;-84
2021/09/18 03:01:26;;;;;;;10.80;9.70;;;14.40;99.90;;;;;;5005151;28;20159;-84
2021/09/18 03:03:52;;;;;;;7.20;6.50;;;14.30;99.90;;;;;;5004799;28;20166;-83
2021/09/18 03:06:18;;;;;;;8.73;7.60;;;14.30;99.90;;;;;;5005560;28;20194;-84
2021/09/18 03:08:43;;;;;;;10.90;8.83;;;14.20;99.90;;;;;;5005659;28;20189;-84
2021/09/18 03:11:10;;;;;;;9.17;7.30;;;14.30;99.90;;;;;;5005639;28;20158;-84
2021/09/18 03:13:36;;;;;;;10.27;8.33;;;14.30;99.90;;;;;;5004831;28;20163;-84
2021/09/18 03:16:04;;;;;;;10.53;7.97;;;14.40;99.90;;;;;;5003336;28;20406;-84
2021/09/18 03:18:30;;;;;;;14.33;8.97;;;14.40;99.90;;;;;;5005497;28;20928;-83
2021/09/18 03:20:56;;;;;;;8.73;8.03;;;14.50;99.90;;;;;;5012736;28;20393;-83
2021/09/18 03:23:22;;;;;;;8.40;7.60;;;14.30;99.90;;;;;;5019837;28;20173;-83
2021/09/18 03:25:47;;;;;;;9.00;8.10;;;13.80;99.90;;;;;;5019811;28;20186;-84
2021/09/18 03:28:13;;;;;;;10.07;7.90;;;13.30;99.90;;;;;;5020430;28;20189;-84
2021/09/18 03:30:39;;;;;;;8.93;7.73;;;13.10;99.90;;;;;;5020123;28;20166;-84
2021/09/18 03:33:05;;;;;;;8.73;7.57;;;13.00;99.90;;;;;;5015688;28;20170;-83
2021/09/18 03:35:31;;;;;;;9.33;8.43;;;12.90;99.90;;;;;;5020002;28;20151;-83
2021/09/18 03:37:57;;;;;;;9.10;7.13;;;12.80;99.90;;;;;;5019838;28;20449;-84
2021/09/18 03:40:23;;;;;;;8.27;7.40;;;12.70;99.90;;;;;;5020696;28;20162;-83
2021/09/18 03:42:49;;;;;;;9.13;8.10;;;12.70;99.90;;;;;;5019618;28;20186;-84
2021/09/18 03:45:15;;;;;;;7.53;6.77;;;12.70;99.90;;;;;;5020512;28;20404;-84
2021/09/18 03:47:41;;;;;;;11.20;8.00;;;12.90;99.90;;;;;;5020717;28;20190;-82
2021/09/18 03:50:08;;;;;;;9.73;8.00;;;12.80;99.90;;;;;;5020577;28;20469;-83
2021/09/18 03:52:35;;;;;;;10.00;8.70;;;12.80;99.90;;;;;;5020294;28;20198;-83
2021/09/18 03:55:01;;;;;;;10.43;8.80;;;12.60;99.90;;;;;;5018621;28;20895;-81
2021/09/18 03:57:26;;;;;;;13.30;8.97;;;12.60;99.90;;;;;;5019196;28;20500;-83
2021/09/18 03:59:52;;;;;;;12.67;9.10;;;12.40;99.90;;;;;;5014964;28;20166;-83
2021/09/18 04:02:18;;;;;;;10.77;9.03;;;12.50;99.90;;;;;;5002459;28;20189;-83
2021/09/18 04:04:44;;;;;;;9.30;8.40;;;12.50;99.90;;;;;;5001505;28;20197;-83
2021/09/18 04:07:10;;;;;;;11.93;9.40;;;12.60;99.90;;;;;;5001046;28;20217;-84
2021/09/18 04:09:35;;;;;;;8.97;8.10;;;12.60;99.90;;;;;;5003270;28;20193;-82
2021/09/18 04:12:02;;;;;;;12.43;9.90;;;12.60;99.90;;;;;;5016555;28;20161;-83
2021/09/18 04:14:28;;;;;;;10.23;9.00;;;12.60;99.90;;;;;;5005207;28;20174;-82
2021/09/18 04:16:54;;;;;;;12.00;9.53;;;12.70;99.90;;;;;;5005051;28;20540;-83
2021/09/18 04:19:20;;;;;;;10.90;9.70;;;12.70;99.90;;;;;;5008244;28;20752;-83
2021/09/18 04:21:46;;;;;;;10.37;9.30;;;12.70;99.90;;;;;;5000854;28;20464;-81
2021/09/18 04:24:12;;;;;;;11.80;8.70;;;12.70;99.90;;;;;;5001400;28;20402;-84
2021/09/18 04:26:38;;;;;;;10.00;8.37;;;12.80;99.90;;;;;;5001359;28;20956;-84
2021/09/18 04:29:05;;;;;;;12.50;8.90;;;13.00;99.90;;;;;;5001373;28;20213;-83
2021/09/18 04:31:32;;;;;;;10.23;7.90;;;12.90;99.90;;;;;;5001115;28;20166;-83
2021/09/18 04:33:58;;;;;;;10.10;8.53;;;12.90;99.90;;;;;;5000504;28;20409;-83
2021/09/18 04:36:24;;;;;;;10.53;8.53;;;13.00;99.90;;;;;;4999325;28;20394;-83
2021/09/18 04:38:50;;;;;;;9.97;7.13;;;13.10;99.90;;;;;;4998669;28;20413;-83
2021/09/18 04:41:16;;;;;;;8.87;8.00;;;13.10;99.90;;;;;;5000778;28;20166;-83
2021/09/18 04:43:43;;;;;;;8.93;6.43;;;12.90;99.90;;;;;;5000335;28;20225;-82
2021/09/18 04:46:09;;;;;;;8.93;8.13;;;12.80;99.90;;;;;;4998680;28;20433;-83
2021/09/18 04:48:35;;;;;;;17.60;9.97;;;12.60;99.90;;;;;;5000508;28;20393;-82
2021/09/18 04:51:01;;;;;;;8.87;7.70;;;12.40;99.90;;;;;;5000327;28;20875;-83
2021/09/18 04:53:26;;;;;;;8.53;7.47;;;12.20;99.90;;;;;;5000824;28;20167;-83
2021/09/18 04:55:53;;;;;;;9.20;8.23;;;12.00;99.90;;;;;;4999938;28;20416;-84
2021/09/18 04:58:19;;;;;;;11.53;8.53;;;12.00;99.90;;;;;;4999821;28;20221;-83
2021/09/18 05:00:45;;;;;;;7.53;6.67;;;12.00;99.90;;;;;;5000723;28;20409;-83
2021/09/18 05:03:11;;;;;;;7.90;7.10;;;11.90;99.90;;;;;;5000036;28;20398;-83
2021/09/18 05:05:38;;;;;;;11.17;7.87;;;12.00;99.90;;;;;;4998398;28;20552;-83
2021/09/18 05:08:06;;;;;;;8.77;7.10;;;12.00;99.90;;;;;;5000106;28;20914;-83
2021/09/18 05:10:32;;;;;;;12.67;9.80;;;12.00;99.90;;;;;;4999731;28;20406;-83
2021/09/18 05:12:57;;;;;;;12.83;8.90;;;12.10;99.90;;;;;;4999439;28;20881;-83
2021/09/18 05:15:24;;;;;;;12.03;8.57;;;12.20;99.90;;;;;;4999529;28;20437;-84
2021/09/18 05:17:50;;;;;;;9.37;8.37;;;12.10;99.90;;;;;;5000187;28;20227;-82
2021/09/18 05:20:15;;;;;;;8.57;7.67;;;12.10;99.90;;;;;;4999992;28;20466;-83
2021/09/18 05:22:41;;;;;;;9.63;8.77;;;12.00;99.90;;;;;;5000218;28;20177;-83
2021/09/18 05:25:08;;;;;;;8.73;7.83;;;12.10;99.90;;;;;;5002528;28;20512;-83
2021/09/18 05:27:34;;;;;;;9.23;8.27;;;12.10;99.90;;;;;;4998424;28;20224;-83
2021/09/18 05:29:59;;;;;;;8.43;6.87;;;12.20;99.90;;;;;;4998172;28;20402;-83
2021/09/18 05:32:25;;;;;;;9.70;8.70;;;12.10;99.90;;;;;;4999033;28;20162;-83
2021/09/18 05:34:51;;;;;;;9.10;7.93;;;12.10;99.90;;;;;;4999395;28;20173;-82
2021/09/18 05:37:17;;;;;;;11.00;7.70;;;12.20;99.90;;;;;;5000584;28;20262;-83
2021/09/18 05:39:43;;;;;;;8.03;7.17;;;12.30;99.90;;;;;;5001435;28;20181;-83
2021/09/18 05:42:08;;;;;;;9.37;7.40;;;12.40;99.90;;;;;;5000148;28;20388;-82
2021/09/18 05:44:34;;;;;;;8.60;7.50;;;12.50;99.90;;;;;;4999907;28;20645;-83
2021/09/18 05:47:00;;;;;;;7.93;7.13;;;12.50;99.90;;;;;;5000663;28;20336;-83
2021/09/18 05:49:26;;;;;;;8.27;7.03;;;12.40;99.90;;;;;;5000451;28;20863;-83
2021/09/18 05:51:52;;;;;;;8.50;7.37;;;12.30;99.90;;;;;;5000073;28;20170;-83
2021/09/18 05:54:18;;;;;;;7.43;6.73;;;12.10;99.90;;;;;;5000826;28;20177;-83
2021/09/18 05:56:43;;;;;;;7.83;6.50;;;12.20;99.90;;;;;;5000625;28;20586;-83
2021/09/18 05:59:09;;;;;;;7.50;6.73;;;12.20;99.90;;;;;;5001098;28;20233;-83
2021/09/18 06:01:37;;;;;;;9.07;8.17;;;12.20;99.90;;;;;;5000451;28;20177;-83
2021/09/18 06:04:03;;;;;;;8.00;7.20;;;12.40;99.90;;;;;;5001344;28;20405;-83
2021/09/18 06:06:29;;;;;;;10.10;8.73;;;12.40;99.90;;;;;;5001907;28;20204;-80
2021/09/18 06:08:55;;;;;;;11.80;8.80;;;12.60;99.90;;;;;;5003292;28;20432;-83
2021/09/18 06:11:22;;;;;;;7.70;6.90;;;12.70;99.90;;;;;;4999306;28;20194;-82
2021/09/18 06:13:48;;;;;;;10.57;7.47;;;12.70;99.90;;;;;;4999442;28;20166;-83
2021/09/18 06:16:16;;;;;;;9.20;8.10;;;12.70;99.90;;;;;;4998936;28;20409;-82
2021/09/18 06:18:44;;;;;;;10.47;8.70;;;12.80;99.90;;;;;;5004541;28;20405;-82
2021/09/18 06:21:10;;;;;;;11.40;8.73;;;12.90;99.90;;;;;;5002737;28;20409;-83
2021/09/18 06:23:40;;;;;;;8.70;7.77;;;13.00;99.90;;;;;;5005166;28;20631;-83
2021/09/18 06:26:07;;;;;;;8.80;8.00;;;13.00;99.90;;;;;;5003586;28;20444;-83
2021/09/18 06:28:33;;;;;;;8.10;7.40;;;13.00;99.90;;;;;;5003901;28;20471;-83
2021/09/18 06:31:01;;;;;;;9.17;8.27;;;13.10;99.90;;;;;;5001500;28;20398;-83
2021/09/18 06:33:30;;;;;;;9.47;8.50;;;13.20;99.90;;;;;;4983991;28;20409;-83
2021/09/18 06:35:56;;;;;;;8.27;7.47;;;13.00;99.90;;;;;;5000980;28;20405;-83
2021/09/18 06:38:22;;;;;;;9.23;8.47;;;12.90;99.90;;;;;;4999325;28;20245;-83
2021/09/18 06:40:50;;;;;;;9.57;7.43;;;13.10;99.90;;;;;;5000815;28;20408;-83
2021/09/18 06:43:16;;;;;;;9.83;8.50;;;13.10;99.90;;;;;;4999388;28;20404;-83
2021/09/18 06:45:42;;;;;;;11.63;8.30;;;13.10;99.90;;;;;;4999754;28;20397;-82
2021/09/18 06:48:08;;;;;;;9.83;8.17;;;13.30;99.90;;;;;;4982169;28;20393;-83
2021/09/18 06:50:34;;;;;;;9.23;7.53;;;13.30;99.90;;;;;;4999701;28;20404;-84
2021/09/18 06:52:59;;;;;;;10.23;9.10;;;13.40;99.90;;;;;;4998153;28;20178;-84
2021/09/18 06:55:26;;;;;;;12.00;9.57;;;13.50;99.90;;;;;;4997921;28;20237;-83
2021/09/18 06:57:54;;;;;;;9.37;8.40;;;13.50;99.90;;;;;;4999397;28;20699;-83
2021/09/18 07:00:20;;;;;;;10.13;9.03;;;13.40;99.90;;;;;;5005691;28;20420;-82
2021/09/18 07:02:45;;;;;;;8.50;7.70;;;13.40;99.90;;;;;;5018425;28;20439;-81
2021/09/18 07:05:11;;;;;;;11.00;7.80;;;13.70;99.90;;;;;;5018289;28;20166;-82
2021/09/18 07:07:37;;;;;;;9.13;8.13;;;13.60;99.90;;;;;;5015318;28;20228;-82
2021/09/18 07:10:03;;;;;;;11.27;8.63;;;13.80;99.90;;;;;;5016660;28;20217;-83
2021/09/18 07:12:29;;;;;;;9.27;8.37;;;13.80;99.90;;;;;;5012631;28;20421;-84
2021/09/18 07:14:55;;;;;;;11.57;10.37;;;14.20;99.90;;;;;;5004260;28;20798;-83
2021/09/18 07:17:21;;;;;;;9.27;8.30;;;14.50;99.90;;;;;;5002865;28;20182;-83
2021/09/18 07:19:47;;;;;;;11.63;8.30;;;14.70;99.90;;;;;;5003469;28;20201;-84
2021/09/18 07:22:13;;;;;;;9.37;8.33;;;14.80;99.90;;;;;;5002750;28;20195;-83
2021/09/18 07:24:38;;;;;;;9.20;7.97;;;14.80;99.90;;;;;;5002600;28;20404;-83
2021/09/18 07:27:04;;;;;;;9.07;8.17;;;14.60;99.90;;;;;;5002567;28;20202;-83
2021/09/18 07:29:31;;;;;;;15.17;9.33;;;14.50;99.90;;;;;;5001875;28;20592;-83
2021/09/18 07:31:58;;;;;;;11.20;9.20;;;14.40;99.90;;;;;;5003708;28;20177;-83
2021/09/18 07:34:23;;;;;;;9.83;8.93;;;14.30;99.90;;;;;;5003045;28;20405;-83
2021/09/18 07:36:49;;;;;;;10.73;8.07;;;14.40;99.90;;;;;;5004511;28;20416;-83
2021/09/18 07:39:26;;;;;;;10.83;9.80;;;14.70;99.90;;;;;;5006095;28;20170;-83
2021/09/18 07:41:53;;;;;;;8.70;7.90;;;14.60;99.90;;;;;;5004434;28;20397;-83
2021/09/18 07:44:18;;;;;;;7.90;7.10;;;14.50;99.90;;;;;;4985681;28;20501;-83
2021/09/18 07:46:44;;;;;;;9.17;8.27;;;14.50;99.90;;;;;;5002375;28;20201;-82
2021/09/18 07:49:10;;;;;;;10.13;9.13;;;14.40;99.90;;;;;;5002956;28;20506;-82
2021/09/18 07:51:50;;;;;;;9.40;8.50;;;14.50;99.90;;;;;;5007588;28;20264;-84
2021/09/18 07:54:23;;;;;;;8.80;7.90;;;15.20;99.90;;;;;;5006701;28;20162;-84
2021/09/18 07:56:48;;;;;;;10.27;9.20;;;15.40;99.90;;;;;;5000452;28;20550;-83
2021/09/18 07:59:14;;;;;;;9.03;8.20;;;15.10;99.90;;;;;;5001816;28;20492;-84
2021/09/18 08:01:42;;;;;;;9.90;8.40;;;15.00;99.90;;;;;;5003074;28;20177;-83
2021/09/18 08:04:08;;;;;;;11.43;8.17;;;15.30;99.90;;;;;;5001987;28;20181;-83
2021/09/18 08:06:36;;;;;;;11.67;8.00;;;15.40;99.90;;;;;;5002810;28;20445;-83
2021/09/18 08:09:04;;;;;;;10.23;9.17;;;15.80;99.90;;;;;;5001503;28;20882;-84
2021/09/18 08:11:30;;;;;;;10.90;9.57;;;16.30;99.90;;;;;;5001731;28;20398;-83
2021/09/18 08:13:57;;;;;;;9.97;8.90;;;16.30;99.90;;;;;;5001073;28;20404;-84
2021/09/18 08:16:27;;;;;;;10.77;9.87;;;16.60;99.90;;;;;;5003381;28;20750;-84
2021/09/18 08:18:54;;;;;;;13.10;9.73;;;16.40;99.90;;;;;;5001627;28;20405;-85
2021/09/18 08:21:21;;;;;;;11.37;9.90;;;16.10;99.90;;;;;;5000248;28;20407;-83
2021/09/18 08:23:48;;;;;;;11.87;10.20;;;16.40;99.90;;;;;;4984042;28;20497;-84
2021/09/18 08:26:15;;;;;;;12.70;11.00;;;16.90;99.90;;;;;;4999205;28;20463;-83
2021/09/18 08:28:42;;;;;;;14.10;11.43;;;16.80;99.90;;;;;;4999339;28;20432;-83
2021/09/18 08:31:07;;;;;;;13.37;11.93;;;16.60;99.90;;;;;;5001008;28;20404;-83
2021/09/18 08:33:34;;;;;;;16.30;11.17;;;16.60;99.90;;;;;;5000661;28;20863;-83
2021/09/18 08:36:00;;;;;;;13.60;11.67;;;16.60;99.90;;;;;;4999571;28;20167;-83
2021/09/18 08:38:26;;;;;;;14.67;12.97;;;17.20;99.90;;;;;;5001316;28;20405;-83
2021/09/18 08:40:54;;;;;;;15.17;13.40;;;17.80;99.90;;;;;;5001315;28;20162;-83
2021/09/18 08:43:21;;;;;;;17.57;13.27;;;18.20;99.90;;;;;;4999497;28;20882;-82
2021/09/18 08:45:47;;;;;;;16.53;12.40;;;18.60;99.90;;;;;;5000020;28;20497;-83
2021/09/18 08:48:16;;;;;;;17.03;13.77;;;18.70;99.90;;;;;;5000235;28;20393;-83
2021/09/18 08:50:43;;;;;;;15.13;12.87;;;18.80;99.90;;;;;;4998988;28;20453;-84
2021/09/18 08:53:09;;;;;;;15.60;13.60;;;19.00;99.90;;;;;;5000725;28;20408;-84
2021/09/18 08:55:35;;;;;;;16.80;13.40;;;19.20;99.90;;;;;;5000658;28;20401;-84
2021/09/18 08:58:01;;;;;;;15.23;13.70;;;19.40;99.90;;;;;;4999937;28;20561;-84
2021/09/18 09:00:47;;;;;;;15.63;14.00;;;19.30;99.90;;;;;;5000561;28;20795;-81
2021/09/18 09:03:13;;;;;;;17.40;13.93;;;19.00;99.90;;;;;;5000542;28;20170;-83
2021/09/18 09:05:43;;;;;;;16.70;14.40;;;18.70;99.90;;;;;;4999050;28;20402;-82
2021/09/18 09:08:14;;;;;;;16.33;13.87;;;18.50;99.90;;;;;;4984819;28;20440;-84
2021/09/18 09:10:45;;;;;;;15.53;13.50;;;18.50;99.90;;;;;;5001609;28;20444;-84
2021/09/18 09:13:13;;;;;;;16.50;13.87;;;18.60;99.90;;;;;;4985230;28;20487;-83
2021/09/18 09:15:44;;;;;;;17.97;15.53;;;19.60;99.90;;;;;;4999700;28;20396;-82
2021/09/18 09:18:18;;;;;;;16.60;14.47;;;20.00;99.90;;;;;;5001240;28;20432;-84
2021/09/18 09:20:46;;;;;;;17.40;14.17;;;20.60;99.90;;;;;;4999926;28;20395;-83
2021/09/18 09:23:19;;;;;;;18.93;14.60;;;20.60;99.90;;;;;;5002495;28;20412;-84
2021/09/18 09:25:49;;;;;;;14.90;13.23;;;20.70;99.90;;;;;;4999190;28;20455;-84
2021/09/18 09:28:28;;;;;;;15.57;13.60;;;20.60;99.90;;;;;;4999739;28;20399;-84
2021/09/18 09:31:07;;;;;;;16.77;14.00;;;21.00;99.90;;;;;;5000635;28;20442;-82
2021/09/18 09:33:35;;;;;;;15.53;13.97;;;20.70;99.90;;;;;;5000986;28;20476;-83
2021/09/18 09:36:41;;;;;;;19.43;14.43;;;21.00;99.90;;;;;;5004680;28;20390;-82
2021/09/18 09:39:17;;;;;;;17.43;12.70;;;19.40;99.90;;;;;;4998103;28;20398;-84
2021/09/18 09:41:47;;;;;;;15.17;12.83;;;20.10;99.90;;;;;;4981088;28;20416;-84
2021/09/18 09:44:18;;;;;;;14.73;12.80;;;20.50;99.90;;;;;;4997794;28;20414;-83
2021/09/18 09:47:01;;;;;;;17.73;13.77;;;20.30;99.90;;;;;;4981138;28;20444;-83
2021/09/18 09:49:43;;;;;;;13.73;12.30;;;20.30;99.90;;;;;;4982360;28;20471;-83
2021/09/18 09:52:21;;;;;;;10.83;9.73;;;20.00;99.90;;;;;;4980450;28;20398;-83
2021/09/18 09:54:49;;;;;;;12.83;11.27;;;19.90;99.90;;;;;;4997037;28;20416;-83
2021/09/18 09:57:15;;;;;;;17.43;12.33;;;20.30;99.90;;;;;;4964732;28;20476;-83
2021/09/18 09:59:42;;;;;;;14.73;11.30;;;20.30;99.90;;;;;;4997012;28;20413;-82
2021/09/18 10:02:10;;;;;;;14.13;11.77;;;19.90;99.90;;;;;;4980058;28;20519;-82
2021/09/18 10:04:38;;;;;;;11.73;10.57;;;20.20;99.90;;;;;;4996932;28;20866;-83
2021/09/18 10:07:05;;;;;;;15.03;10.73;;;21.30;99.90;;;;;;4981499;28;20456;-83
2021/09/18 10:09:33;;;;;;;8.60;7.80;;;22.20;99.90;;;;;;4995910;28;20592;-84
2021/09/18 10:11:59;;;;;;;9.00;8.20;;;22.60;99.90;;;;;;4999856;28;20397;-83
2021/09/18 10:14:28;;;;;;;10.07;7.80;;;22.80;99.90;;;;;;4998218;28;20401;-83
2021/09/18 10:16:58;;;;;;;10.70;8.73;;;23.20;99.90;;;;;;4998982;28;20172;-84
2021/09/18 10:19:55;;;;;;;10.70;7.70;;;23.10;99.90;;;;;;5000103;28;20411;-83
2021/09/18 10:25:13;;;;;;;7.17;6.57;;;24.10;99.90;;;;;;4985191;28;20402;-83
2021/09/18 10:27:39;;;;;;;8.57;7.70;;;23.80;99.90;;;;;;4983191;28;20747;-84
2021/09/18 10:30:28;;;;;;;6.80;6.10;;;23.50;99.90;;;;;;4998573;28;20614;-83
2021/09/18 10:32:54;;;;;;;6.70;6.07;;;23.60;99.90;;;;;;4998857;28;20412;-84
2021/09/18 10:35:20;;;;;;;6.70;6.03;;;23.20;99.90;;;;;;4969284;28;20393;-84
2021/09/18 10:37:46;;;;;;;5.57;5.07;;;23.10;99.90;;;;;;5003192;28;20174;-84
2021/09/18 10:40:15;;;;;;;7.17;5.77;;;24.10;99.90;;;;;;5004820;28;20883;-83
2021/09/18 10:42:46;;;;;;;7.00;6.40;;;23.80;99.90;;;;;;5002523;28;20169;-84
2021/09/18 10:45:14;;;;;;;5.70;5.20;;;24.00;99.90;;;;;;4969281;28;20474;-84
2021/09/18 10:47:43;;;;;;;6.30;5.70;;;24.70;99.90;;;;;;4987432;28;20552;-84
2021/09/18 10:50:48;;;;;;;5.83;5.33;;;24.90;99.90;;;;;;5007159;28;20451;-82
2021/09/18 10:53:20;;;;;;;6.07;5.47;;;24.40;99.90;;;;;;4976949;28;20484;-84
2021/09/18 10:56:05;;;;;;;5.50;5.00;;;23.80;99.90;;;;;;5007623;28;20397;-83
2021/09/18 10:58:31;;;;;;;5.40;4.90;;;23.50;99.90;;;;;;5010391;28;20397;-83
2021/09/18 11:01:00;;;;;;;7.87;4.40;;;23.60;99.90;;;;;;5003069;28;20417;-83
2021/09/18 11:03:41;;;;;;;5.20;3.80;;;24.20;99.90;;;;;;4987434;28;20500;-84
2021/09/18 11:06:29;;;;;;;4.70;4.30;;;24.90;99.90;;;;;;5002296;28;20472;-84
2021/09/18 11:08:56;;;;;;;3.53;3.20;;;25.60;99.90;;;;;;5003573;28;20433;-84
2021/09/18 11:11:25;;;;;;;4.33;4.03;;;25.60;99.90;;;;;;4985422;28;20884;-84
2021/09/18 11:13:56;;;;;;;4.70;4.23;;;25.30;99.90;;;;;;4970056;28;20496;-84
2021/09/18 11:16:39;;;;;;;4.33;3.93;;;24.70;99.90;;;;;;4985864;28;20756;-83
2021/09/18 11:19:10;;;;;;;3.70;3.40;;;24.50;99.90;;;;;;5000979;28;20405;-83
2021/09/18 11:21:43;;;;;;;3.80;3.50;;;24.90;99.90;;;;;;4984318;28;20397;-84
2021/09/18 11:24:24;;;;;;;4.20;3.47;;;25.70;99.90;;;;;;5001656;28;20428;-84
2021/09/18 11:26:54;;;;;;;4.20;3.90;;;25.80;99.90;;;;;;4969571;28;20443;-84
2021/09/18 11:29:23;;;;;;;4.27;3.97;;;25.90;99.90;;;;;;5000208;28;20428;-84
2021/09/18 11:32:06;;;;;;;4.70;4.27;;;25.50;99.90;;;;;;5000226;28;20396;-83
2021/09/18 11:34:43;;;;;;;6.70;6.03;;;24.30;99.90;;;;;;5000151;28;20465;-83
2021/09/18 11:37:12;;;;;;;4.60;3.97;;;23.50;99.90;;;;;;4999569;28;20400;-83
2021/09/18 11:39:45;;;;;;;3.70;3.30;;;23.60;99.90;;;;;;4999767;28;20401;-83
2021/09/18 11:42:16;;;;;;;4.13;3.73;;;24.10;99.90;;;;;;5000944;28;20412;-83
2021/09/18 11:44:43;;;;;;;3.80;3.50;;;25.10;99.90;;;;;;4999374;28;20398;-84
2021/09/18 11:47:09;;;;;;;4.10;3.70;;;25.20;99.90;;;;;;5000148;28;20583;-84
2021/09/18 11:49:35;;;;;;;4.23;3.63;;;24.30;99.90;;;;;;4998084;28;20405;-83
2021/09/18 11:52:03;;;;;;;3.80;3.50;;;24.30;99.90;;;;;;5000343;28;20413;-84
2021/09/18 11:54:31;;;;;;;5.70;4.07;;;25.00;99.90;;;;;;5003186;28;20182;-84
2021/09/18 11:57:12;;;;;;;6.23;3.40;;;24.80;99.90;;;;;;4968756;28;20475;-84
2021/09/18 11:59:39;;;;;;;3.50;3.20;;;24.80;99.90;;;;;;4999363;28;20393;-84
2021/09/18 12:02:05;;;;;;;3.30;3.00;;;26.50;99.90;;;;;;4999213;28;20439;-83
2021/09/18 12:04:41;;;;;;;2.50;2.40;;;27.70;99.90;;;;;;5000256;28;20859;-83
2021/09/18 12:07:09;;;;;;;2.90;2.70;;;25.30;98.60;;;;;;5000921;28;20227;-83
2021/09/18 12:09:36;;;;;;;3.33;2.87;;;24.70;99.90;;;;;;4999569;28;20747;-83
2021/09/18 12:12:06;;;;;;;3.13;2.93;;;24.70;99.90;;;;;;4968084;28;20762;-83
2021/09/18 12:14:36;;;;;;;3.27;3.07;;;24.10;99.90;;;;;;4966803;28;20412;-83
2021/09/18 12:17:19;;;;;;;3.17;2.87;;;23.80;99.90;;;;;;4999678;28;20423;-83
2021/09/18 12:19:47;;;;;;;3.47;3.17;;;23.50;99.90;;;;;;5000162;28;20528;-82
2021/09/18 12:22:16;;;;;;;3.93;3.27;;;23.00;99.90;;;;;;4980881;28;20414;-83
2021/09/18 12:24:46;;;;;;;3.23;2.93;;;23.00;99.90;;;;;;4979555;28;20525;-83
2021/09/18 12:27:24;;;;;;;3.40;2.90;;;23.50;99.90;;;;;;4963277;28;21039;-84
2021/09/18 12:29:57;;;;;;;3.30;3.00;;;23.70;99.90;;;;;;4979380;28;20974;-84
2021/09/18 12:32:23;;;;;;;3.10;2.80;;;23.50;99.90;;;;;;4979376;28;20434;-84
2021/09/18 12:34:50;;;;;;;2.93;2.73;;;24.60;99.90;;;;;;4979348;28;20409;-84
2021/09/18 12:37:17;;;;;;;2.97;2.77;;;25.30;99.90;;;;;;4978205;28;20402;-84
2021/09/18 12:39:44;;;;;;;3.67;2.83;;;25.10;99.90;;;;;;4979458;28;20414;-84
2021/09/18 12:42:10;;;;;;;3.50;3.20;;;24.60;99.90;;;;;;4980449;28;20425;-83
2021/09/18 12:44:38;;;;;;;3.13;2.90;;;24.10;99.90;;;;;;4979254;28;20922;-83
2021/09/18 12:47:05;;;;;;;4.90;3.30;;;23.60;99.90;;;;;;4964594;28;20450;-83
2021/09/18 12:49:34;;;;;;;3.63;2.80;;;23.20;99.90;;;;;;4980020;28;20449;-83